createdAt,value
2019-05-09T00:04:45.533Z,2.6
2019-05-09T00:09:44.074Z,2.7
2019-05-09T00:14:39.568Z,2.6
2019-05-09T00:19:36.347Z,2.7
2019-05-09T00:24:33.364Z,2.6
2019-05-09T00:29:30.342Z,2.5
2019-05-09T00:34:26.996Z,2.5
2019-05-09T00:39:23.864Z,2.3
2019-05-09T00:44:23.059Z,2.3
2019-05-09T00:49:17.582Z,2.2
2019-05-09T00:54:14.557Z,2.3
2019-05-09T00:59:13.456Z,2.4
2019-05-09T01:04:08.203Z,2.4
2019-05-09T01:09:05.184Z,2.3
2019-05-09T01:14:03.555Z,2.3
2019-05-09T01:18:58.764Z,2.5
2019-05-09T01:23:55.687Z,2.4
2019-05-09T01:28:53.753Z,2.5
2019-05-09T01:33:49.708Z,2.4
2019-05-09T01:38:46.762Z,2.6
2019-05-09T01:43:44.244Z,2.4
2019-05-09T01:48:40.567Z,2.5
2019-05-09T01:53:37.564Z,2.5
2019-05-09T01:58:34.673Z,2.3
2019-05-09T02:03:33.380Z,2.4
2019-05-09T02:08:28.160Z,2.4
2019-05-09T02:13:25.190Z,2.5
2019-05-09T02:18:23.059Z,2.7
2019-05-09T02:23:19.359Z,2.5
2019-05-09T02:28:16.356Z,2.6
2019-05-09T02:33:14.553Z,2.4
2019-05-09T02:38:10.338Z,2.4
2019-05-09T02:43:09.870Z,2.5
2019-05-09T02:48:04.278Z,2.6
2019-05-09T02:53:01.180Z,2.7
2019-05-09T02:57:59.160Z,2.6
2019-05-09T03:02:55.106Z,2.4
2019-05-09T03:07:51.863Z,2.7
2019-05-09T03:12:50.043Z,2.9
2019-05-09T03:17:48.936Z,3
2019-05-09T03:22:43.101Z,3.2
2019-05-09T03:27:39.953Z,3.5
2019-05-09T03:32:38.697Z,3.8
2019-05-09T03:37:33.970Z,4
2019-05-09T03:42:40.890Z,4.1
2019-05-09T03:47:28.196Z,4.3
2019-05-09T03:52:25.260Z,4.5
2019-05-09T03:57:22.498Z,4.8
2019-05-09T04:02:19.739Z,4.9
2019-05-09T04:07:18.626Z,5.2
2019-05-09T04:12:14.180Z,5.5
2019-05-09T04:17:11.466Z,5.7
2019-05-09T04:22:08.674Z,6.5
2019-05-09T04:27:07.765Z,6.7
2019-05-09T04:32:03.809Z,7.3
2019-05-09T04:37:01.373Z,9.4
2019-05-09T04:42:05.139Z,11.1
2019-05-09T04:47:03.303Z,13.7
2019-05-09T04:51:58.489Z,15
2019-05-09T04:56:57.594Z,15
2019-05-09T05:01:57.848Z,15.9
2019-05-09T05:06:53.987Z,16.3
2019-05-09T05:11:52.092Z,18.2
2019-05-09T05:16:52.846Z,20.6
2019-05-09T05:21:50.544Z,19.9
2019-05-09T05:26:49.162Z,19.1
2019-05-09T05:31:47.705Z,19.7
2019-05-09T05:36:44.336Z,20.3
2019-05-09T05:41:42.381Z,20.3
2019-05-09T05:46:39.376Z,19.1
2019-05-09T05:51:37.915Z,19.4
2019-05-09T05:56:33.510Z,18.8
2019-05-09T06:01:30.593Z,19.1
2019-05-09T06:06:28.064Z,20
2019-05-09T06:11:28.045Z,18.8
2019-05-09T06:16:24.551Z,19.8
2019-05-09T06:21:21.812Z,19.3
2019-05-09T06:26:19.059Z,19.4
2019-05-09T06:31:17.847Z,18.4
2019-05-09T06:36:12.854Z,19
2019-05-09T06:41:12.131Z,18.4
2019-05-09T06:46:08.071Z,18.4
2019-05-09T06:51:04.422Z,18.8
2019-05-09T06:56:01.192Z,19.6
2019-05-09T07:00:58.992Z,19.4
2019-05-09T07:05:57.553Z,19.8
2019-05-09T07:10:53.847Z,19.5
2019-05-09T07:15:51.301Z,19.8
2019-05-09T07:20:48.850Z,20.3
2019-05-09T07:25:47.818Z,20.2
2019-05-09T07:30:44.286Z,20.9
2019-05-09T07:35:42.200Z,22
2019-05-09T07:40:39.917Z,22
2019-05-09T07:45:38.358Z,23
2019-05-09T07:50:38.576Z,23.6
2019-05-09T07:55:33.576Z,25.5
2019-05-09T08:00:31.839Z,26.4
2019-05-09T08:05:30.047Z,27
2019-05-09T08:10:32.451Z,27.5
2019-05-09T08:15:27.964Z,25.5
2019-05-09T08:20:24.719Z,26.6
2019-05-09T08:25:22.688Z,28.8
2019-05-09T08:30:20.928Z,29.3
2019-05-09T08:35:19.156Z,28.8
2019-05-09T08:40:18.317Z,27.1
2019-05-09T08:45:25.182Z,29
2019-05-09T08:50:12.579Z,30.9
2019-05-09T08:55:10.928Z,30.1
2019-05-09T09:00:09.043Z,30.9
2019-05-09T09:05:08.583Z,31.7
2019-05-09T09:10:04.541Z,29.8
2019-05-09T09:15:01.813Z,28.2
2019-05-09T09:19:58.350Z,25.3
2019-05-09T09:24:53.837Z,24.4
2019-05-09T09:29:49.461Z,23.9
2019-05-09T09:34:48.157Z,23.9
2019-05-09T09:39:44.691Z,23.6
2019-05-09T09:44:39.684Z,23.3
2019-05-09T09:49:38.335Z,22.9
2019-05-09T09:54:33.060Z,23.2
2019-05-09T09:59:29.739Z,22
2019-05-09T10:04:28.201Z,22
2019-05-09T10:09:23.241Z,22.4
2019-05-09T10:14:20.502Z,22.7
2019-05-09T10:19:18.575Z,23
2019-05-09T10:24:17.456Z,22.2
2019-05-09T10:29:12.866Z,20.9
2019-05-09T10:34:11.097Z,20.1
2019-05-09T10:39:08.250Z,19.4
2019-05-09T10:44:02.876Z,18.2
2019-05-09T10:48:59.160Z,17.8
2019-05-09T10:53:55.782Z,17.9
2019-05-09T10:58:52.547Z,17.2
2019-05-09T11:03:49.341Z,16.2
2019-05-09T11:08:47.574Z,16
2019-05-09T11:13:42.880Z,16.6
2019-05-09T11:18:39.963Z,16.2
2019-05-09T11:23:39.132Z,16.2
2019-05-09T11:28:34.290Z,16.9
2019-05-09T11:33:31.164Z,17.1
2019-05-09T11:38:34.051Z,16.9
2019-05-09T11:43:25.415Z,17.8
2019-05-09T11:48:23.024Z,17.9
2019-05-09T11:53:20.730Z,18
2019-05-09T11:58:18.478Z,18.9
2019-05-09T12:03:18.726Z,18.5
2019-05-09T12:08:14.156Z,18.6
2019-05-09T12:13:11.869Z,20.6
2019-05-09T12:18:11.546Z,21.3
2019-05-09T12:23:07.941Z,21.9
2019-05-09T12:28:07.787Z,20.5
2019-05-09T12:33:03.341Z,20.6
2019-05-09T12:38:00.993Z,21.3
2019-05-09T12:42:58.690Z,20.9
2019-05-09T12:48:07.307Z,20.8
2019-05-09T12:52:53.876Z,20.3
2019-05-09T12:57:51.381Z,20.6
2019-05-09T13:02:48.799Z,20.4
2019-05-09T13:07:48.028Z,21.1
2019-05-09T13:12:43.554Z,20.6
2019-05-09T13:17:41.279Z,20.1
2019-05-09T13:22:38.872Z,19.9
2019-05-09T13:27:37.669Z,19.7
2019-05-09T13:32:32.765Z,19.6
2019-05-09T13:37:30.021Z,19.2
2019-05-09T13:42:28.395Z,19.1
2019-05-09T13:47:24.510Z,17.7
2019-05-09T13:52:21.163Z,16.9
2019-05-09T13:57:18.721Z,15.9
2019-05-09T14:02:14.674Z,15.5
2019-05-09T14:07:11.072Z,14.8
2019-05-09T14:12:09.259Z,14.2
2019-05-09T14:17:04.793Z,14.3
2019-05-09T14:22:01.747Z,13.8
2019-05-09T14:26:58.491Z,13.4
2019-05-09T14:31:55.233Z,13.4
2019-05-09T14:36:52.293Z,12.9
2019-05-09T14:41:49.446Z,12.7
2019-05-09T14:46:48.112Z,12.6
2019-05-09T14:51:43.106Z,12.4
2019-05-09T14:56:41.671Z,12.3
2019-05-09T15:01:38.662Z,11.8
2019-05-09T15:06:33.792Z,11.6
2019-05-09T15:11:30.757Z,11.7
2019-05-09T15:16:28.321Z,11.4
2019-05-09T15:21:24.603Z,11.6
2019-05-09T15:26:21.571Z,11.5
2019-05-09T15:31:18.654Z,11.1
2019-05-09T15:36:15.649Z,11.4
2019-05-09T15:41:12.588Z,11.3
2019-05-09T15:46:09.619Z,11.2
2019-05-09T15:51:07.522Z,11.4
2019-05-09T15:56:04.077Z,11.2
2019-05-09T16:01:01.169Z,11.2
2019-05-09T16:05:58.585Z,11
2019-05-09T16:10:55.245Z,11.2
2019-05-09T16:15:52.546Z,11.5
2019-05-09T16:20:49.896Z,11.2
2019-05-09T16:25:47.950Z,11.4
2019-05-09T16:30:43.979Z,11.1
2019-05-09T16:35:40.833Z,11.5
2019-05-09T16:40:38.553Z,11.6
2019-05-09T16:45:35.316Z,11.3
2019-05-09T16:50:32.483Z,11.1
2019-05-09T16:55:31.273Z,11.1
2019-05-09T17:00:27.447Z,10.9
2019-05-09T17:05:23.558Z,10.7
2019-05-09T17:10:20.500Z,10.8
2019-05-09T17:15:17.595Z,10.5
2019-05-09T17:20:14.511Z,10.4
2019-05-09T17:25:11.382Z,10.3
2019-05-09T17:30:08.641Z,10.5
2019-05-09T17:35:05.352Z,10.3
2019-05-09T17:40:02.532Z,10.1
2019-05-09T17:44:59.522Z,10.2
2019-05-09T17:49:57.393Z,9.9
2019-05-09T17:54:53.254Z,10.2
2019-05-09T17:59:50.187Z,10.1
2019-05-09T18:04:47.938Z,10
2019-05-09T18:09:43.921Z,10
2019-05-09T18:14:40.652Z,10
2019-05-09T18:19:38.129Z,10.1
2019-05-09T18:24:34.860Z,10.1
2019-05-09T18:29:31.951Z,10.2
2019-05-09T18:34:29.012Z,10.2
2019-05-09T18:39:27.760Z,9.9
2019-05-09T18:44:23.441Z,10
2019-05-09T18:49:20.555Z,10
2019-05-09T18:54:17.553Z,10
2019-05-09T18:59:14.614Z,10
2019-05-09T19:04:11.696Z,10
2019-05-09T19:09:09.515Z,9.9
2019-05-09T19:14:06.750Z,9.8
2019-05-09T19:19:03.571Z,9.7
2019-05-09T19:24:00.840Z,9.5
2019-05-09T19:28:57.913Z,9.5
2019-05-09T19:33:55.075Z,9.8
2019-05-09T19:38:52.179Z,9.7
2019-05-09T19:43:49.256Z,9.7
2019-05-09T19:48:46.404Z,9.7
2019-05-09T19:53:43.550Z,9.7
2019-05-09T19:58:40.701Z,9.4
2019-05-09T20:03:37.571Z,9.7
2019-05-09T20:08:34.848Z,9.7
2019-05-09T20:13:31.989Z,9.7
2019-05-09T20:18:28.994Z,9.7
2019-05-09T20:23:26.029Z,9.7
2019-05-09T20:28:23.101Z,9.6
2019-05-09T20:33:20.192Z,9.7
2019-05-09T20:38:17.488Z,9.5
2019-05-09T20:43:14.547Z,9.8
2019-05-09T20:48:11.310Z,9.6
2019-05-09T20:53:09.803Z,9.7
2019-05-09T20:58:05.547Z,9.7
2019-05-09T21:03:02.693Z,9.7
2019-05-09T21:07:59.865Z,9.8
2019-05-09T21:12:56.889Z,9.8
2019-05-09T21:17:53.984Z,9.7
2019-05-09T21:22:51.300Z,9.7
2019-05-09T21:27:47.925Z,9.8
2019-05-09T21:32:45.038Z,9.8
2019-05-09T21:37:41.978Z,9.8
2019-05-09T21:42:39.104Z,9.7
2019-05-09T21:47:36.391Z,9.8
2019-05-09T21:52:33.540Z,9.8
2019-05-09T21:57:30.524Z,9.9
2019-05-09T22:02:27.561Z,9.9
2019-05-09T22:07:24.772Z,9.7
2019-05-09T22:12:21.884Z,9.6
2019-05-09T22:17:19.031Z,9.8
2019-05-09T22:22:16.290Z,9.7
2019-05-09T22:27:13.532Z,9.8
2019-05-09T22:32:10.603Z,9.6
2019-05-09T22:37:07.654Z,9.6
2019-05-09T22:42:04.909Z,9.7
2019-05-09T22:47:02.107Z,9.8
2019-05-09T22:51:59.306Z,9.8
2019-05-09T22:56:56.318Z,9.7
2019-05-09T23:01:53.683Z,9.9
2019-05-09T23:06:50.672Z,9.8
2019-05-09T23:11:47.865Z,9.6
2019-05-09T23:16:45.062Z,9.4
2019-05-09T23:21:41.867Z,9.3
2019-05-09T23:26:38.968Z,9.5
2019-05-09T23:31:35.948Z,9.4
2019-05-09T23:36:33.062Z,9.5
2019-05-09T23:41:30.130Z,9.3
2019-05-09T23:46:27.334Z,9.3
2019-05-09T23:51:24.462Z,9.6
2019-05-09T23:56:21.712Z,9.4
